sensor_id;sensor_type;location;lat;lon;timestamp;P1;durP1;ratioP1;P2;durP2;ratioP2
27796;SDS011;15177;50.844;4.412;2023-12-28T00:01:58;8.40;;;2.77;;
27796;SDS011;15177;50.844;4.412;2023-12-28T00:04:26;6.93;;;3.00;;
27796;SDS011;15177;50.844;4.412;2023-12-28T00:06:53;6.57;;;3.10;;
27796;SDS011;15177;50.844;4.412;2023-12-28T00:09:20;5.20;;;3.73;;
27796;SDS011;15177;50.844;4.412;2023-12-28T00:11:49;4.83;;;3.07;;
27796;SDS011;15177;50.844;4.412;2023-12-28T00:14:17;5.83;;;2.93;;
27796;SDS011;15177;50.844;4.412;2023-12-28T00:16:42;5.43;;;2.93;;
27796;SDS011;15177;50.844;4.412;2023-12-28T00:19:10;5.60;;;3.00;;
27796;SDS011;15177;50.844;4.412;2023-12-28T00:21:36;6.80;;;3.20;;
27796;SDS011;15177;50.844;4.412;2023-12-28T00:24:02;7.90;;;3.10;;
27796;SDS011;15177;50.844;4.412;2023-12-28T00:26:27;7.23;;;3.27;;
27796;SDS011;15177;50.844;4.412;2023-12-28T00:28:53;7.33;;;2.93;;
27796;SDS011;15177;50.844;4.412;2023-12-28T00:31:19;7.73;;;3.47;;
27796;SDS011;15177;50.844;4.412;2023-12-28T00:33:45;5.93;;;3.10;;
27796;SDS011;15177;50.844;4.412;2023-12-28T00:36:17;10.17;;;4.30;;
27796;SDS011;15177;50.844;4.412;2023-12-28T00:38:43;9.03;;;3.43;;
27796;SDS011;15177;50.844;4.412;2023-12-28T00:41:11;5.73;;;3.03;;
27796;SDS011;15177;50.844;4.412;2023-12-28T00:43:37;6.77;;;2.87;;
27796;SDS011;15177;50.844;4.412;2023-12-28T00:46:04;4.80;;;3.10;;
27796;SDS011;15177;50.844;4.412;2023-12-28T00:48:32;7.83;;;3.33;;
27796;SDS011;15177;50.844;4.412;2023-12-28T00:51:00;6.30;;;3.23;;
27796;SDS011;15177;50.844;4.412;2023-12-28T00:53:28;8.13;;;3.33;;
27796;SDS011;15177;50.844;4.412;2023-12-28T00:55:54;4.40;;;2.87;;
27796;SDS011;15177;50.844;4.412;2023-12-28T00:58:19;4.80;;;2.73;;
27796;SDS011;15177;50.844;4.412;2023-12-28T01:00:47;7.97;;;3.40;;
27796;SDS011;15177;50.844;4.412;2023-12-28T01:03:13;5.10;;;2.80;;
27796;SDS011;15177;50.844;4.412;2023-12-28T01:05:41;5.87;;;2.63;;
27796;SDS011;15177;50.844;4.412;2023-12-28T01:08:07;8.43;;;3.90;;
27796;SDS011;15177;50.844;4.412;2023-12-28T01:10:34;9.23;;;3.30;;
27796;SDS011;15177;50.844;4.412;2023-12-28T01:13:00;6.93;;;3.43;;
27796;SDS011;15177;50.844;4.412;2023-12-28T01:15:26;5.97;;;3.30;;
27796;SDS011;15177;50.844;4.412;2023-12-28T01:17:51;5.00;;;3.00;;
27796;SDS011;15177;50.844;4.412;2023-12-28T01:20:17;6.30;;;3.53;;
27796;SDS011;15177;50.844;4.412;2023-12-28T01:22:43;7.27;;;3.00;;
27796;SDS011;15177;50.844;4.412;2023-12-28T01:25:11;5.87;;;3.03;;
27796;SDS011;15177;50.844;4.412;2023-12-28T01:27:36;5.47;;;2.80;;
27796;SDS011;15177;50.844;4.412;2023-12-28T01:30:02;5.33;;;3.27;;
27796;SDS011;15177;50.844;4.412;2023-12-28T01:32:28;7.47;;;3.43;;
27796;SDS011;15177;50.844;4.412;2023-12-28T01:34:54;10.77;;;3.43;;
27796;SDS011;15177;50.844;4.412;2023-12-28T01:37:20;6.80;;;3.00;;
27796;SDS011;15177;50.844;4.412;2023-12-28T01:39:45;7.67;;;3.40;;
27796;SDS011;15177;50.844;4.412;2023-12-28T01:42:11;8.43;;;3.03;;
27796;SDS011;15177;50.844;4.412;2023-12-28T01:44:37;8.33;;;3.03;;
27796;SDS011;15177;50.844;4.412;2023-12-28T01:47:02;8.00;;;2.97;;
27796;SDS011;15177;50.844;4.412;2023-12-28T01:49:31;6.97;;;2.77;;
27796;SDS011;15177;50.844;4.412;2023-12-28T01:51:59;4.87;;;2.77;;
27796;SDS011;15177;50.844;4.412;2023-12-28T01:54:26;6.57;;;2.30;;
27796;SDS011;15177;50.844;4.412;2023-12-28T01:56:52;7.60;;;3.17;;
27796;SDS011;15177;50.844;4.412;2023-12-28T01:59:18;5.97;;;2.50;;
27796;SDS011;15177;50.844;4.412;2023-12-28T02:01:44;4.77;;;2.33;;
27796;SDS011;15177;50.844;4.412;2023-12-28T02:04:12;5.63;;;2.60;;
27796;SDS011;15177;50.844;4.412;2023-12-28T02:06:38;5.83;;;2.83;;
27796;SDS011;15177;50.844;4.412;2023-12-28T02:09:07;7.30;;;2.67;;
27796;SDS011;15177;50.844;4.412;2023-12-28T02:11:35;8.10;;;3.17;;
27796;SDS011;15177;50.844;4.412;2023-12-28T02:14:02;9.40;;;2.57;;
27796;SDS011;15177;50.844;4.412;2023-12-28T02:16:36;6.77;;;2.80;;
27796;SDS011;15177;50.844;4.412;2023-12-28T02:19:18;3.80;;;2.30;;
27796;SDS011;15177;50.844;4.412;2023-12-28T02:21:59;6.93;;;2.50;;
27796;SDS011;15177;50.844;4.412;2023-12-28T02:24:25;6.53;;;2.70;;
27796;SDS011;15177;50.844;4.412;2023-12-28T02:26:51;5.87;;;2.20;;
27796;SDS011;15177;50.844;4.412;2023-12-28T02:29:17;6.17;;;2.47;;
27796;SDS011;15177;50.844;4.412;2023-12-28T02:31:56;7.50;;;2.97;;
27796;SDS011;15177;50.844;4.412;2023-12-28T02:34:33;8.67;;;3.37;;
27796;SDS011;15177;50.844;4.412;2023-12-28T02:37:04;4.73;;;2.60;;
27796;SDS011;15177;50.844;4.412;2023-12-28T02:39:30;12.33;;;2.83;;
27796;SDS011;15177;50.844;4.412;2023-12-28T02:41:57;8.03;;;3.03;;
27796;SDS011;15177;50.844;4.412;2023-12-28T02:44:25;11.23;;;3.07;;
27796;SDS011;15177;50.844;4.412;2023-12-28T02:46:51;7.93;;;3.23;;
27796;SDS011;15177;50.844;4.412;2023-12-28T02:49:17;12.83;;;3.70;;
27796;SDS011;15177;50.844;4.412;2023-12-28T02:51:45;6.97;;;2.70;;
27796;SDS011;15177;50.844;4.412;2023-12-28T02:54:13;7.83;;;2.80;;
27796;SDS011;15177;50.844;4.412;2023-12-28T02:56:39;10.13;;;2.70;;
27796;SDS011;15177;50.844;4.412;2023-12-28T02:59:07;11.53;;;2.77;;
27796;SDS011;15177;50.844;4.412;2023-12-28T03:01:33;8.33;;;2.77;;
27796;SDS011;15177;50.844;4.412;2023-12-28T03:03:58;15.93;;;3.00;;
27796;SDS011;15177;50.844;4.412;2023-12-28T03:06:24;7.70;;;2.33;;
27796;SDS011;15177;50.844;4.412;2023-12-28T03:08:52;7.50;;;2.70;;
27796;SDS011;15177;50.844;4.412;2023-12-28T03:11:18;10.07;;;3.30;;
27796;SDS011;15177;50.844;4.412;2023-12-28T03:13:46;8.10;;;3.07;;
27796;SDS011;15177;50.844;4.412;2023-12-28T03:16:13;8.93;;;2.60;;
27796;SDS011;15177;50.844;4.412;2023-12-28T03:18:41;11.00;;;2.43;;
27796;SDS011;15177;50.844;4.412;2023-12-28T03:21:09;9.73;;;2.70;;
27796;SDS011;15177;50.844;4.412;2023-12-28T03:23:37;5.20;;;2.40;;
27796;SDS011;15177;50.844;4.412;2023-12-28T03:26:03;6.27;;;2.50;;
27796;SDS011;15177;50.844;4.412;2023-12-28T03:28:31;8.67;;;2.97;;
27796;SDS011;15177;50.844;4.412;2023-12-28T03:31:01;9.43;;;3.00;;
27796;SDS011;15177;50.844;4.412;2023-12-28T03:33:28;7.10;;;2.53;;
27796;SDS011;15177;50.844;4.412;2023-12-28T03:35:53;8.83;;;2.60;;
27796;SDS011;15177;50.844;4.412;2023-12-28T03:38:19;12.40;;;2.80;;
27796;SDS011;15177;50.844;4.412;2023-12-28T03:40:47;5.67;;;2.23;;
27796;SDS011;15177;50.844;4.412;2023-12-28T03:43:15;9.53;;;2.70;;
27796;SDS011;15177;50.844;4.412;2023-12-28T03:45:42;9.63;;;2.57;;
27796;SDS011;15177;50.844;4.412;2023-12-28T03:48:10;11.57;;;2.63;;
27796;SDS011;15177;50.844;4.412;2023-12-28T03:50:36;9.63;;;3.13;;
27796;SDS011;15177;50.844;4.412;2023-12-28T03:53:02;12.93;;;2.97;;
27796;SDS011;15177;50.844;4.412;2023-12-28T03:55:30;7.93;;;2.10;;
27796;SDS011;15177;50.844;4.412;2023-12-28T03:57:55;9.10;;;2.33;;
27796;SDS011;15177;50.844;4.412;2023-12-28T04:00:23;15.43;;;3.23;;
27796;SDS011;15177;50.844;4.412;2023-12-28T04:02:49;12.47;;;2.83;;
27796;SDS011;15177;50.844;4.412;2023-12-28T04:05:15;10.30;;;2.47;;
27796;SDS011;15177;50.844;4.412;2023-12-28T04:07:40;9.70;;;2.30;;
27796;SDS011;15177;50.844;4.412;2023-12-28T04:10:06;9.93;;;3.00;;
27796;SDS011;15177;50.844;4.412;2023-12-28T04:12:37;10.53;;;2.93;;
27796;SDS011;15177;50.844;4.412;2023-12-28T04:15:02;8.53;;;2.60;;
27796;SDS011;15177;50.844;4.412;2023-12-28T04:17:28;8.63;;;2.17;;
27796;SDS011;15177;50.844;4.412;2023-12-28T04:19:54;12.03;;;2.93;;
27796;SDS011;15177;50.844;4.412;2023-12-28T04:22:22;12.53;;;2.87;;
27796;SDS011;15177;50.844;4.412;2023-12-28T04:24:50;11.77;;;2.87;;
27796;SDS011;15177;50.844;4.412;2023-12-28T04:27:15;11.63;;;2.57;;
27796;SDS011;15177;50.844;4.412;2023-12-28T04:29:44;8.70;;;2.67;;
27796;SDS011;15177;50.844;4.412;2023-12-28T04:32:15;15.37;;;2.90;;
27796;SDS011;15177;50.844;4.412;2023-12-28T04:34:42;16.50;;;3.13;;
27796;SDS011;15177;50.844;4.412;2023-12-28T04:37:07;13.17;;;2.63;;
27796;SDS011;15177;50.844;4.412;2023-12-28T04:39:33;8.70;;;2.10;;
27796;SDS011;15177;50.844;4.412;2023-12-28T04:41:59;9.57;;;2.20;;
27796;SDS011;15177;50.844;4.412;2023-12-28T04:44:24;12.07;;;2.53;;
27796;SDS011;15177;50.844;4.412;2023-12-28T04:46:51;9.83;;;2.80;;
27796;SDS011;15177;50.844;4.412;2023-12-28T04:49:16;12.63;;;3.00;;
27796;SDS011;15177;50.844;4.412;2023-12-28T04:51:44;12.03;;;2.77;;
27796;SDS011;15177;50.844;4.412;2023-12-28T04:54:10;7.80;;;2.60;;
27796;SDS011;15177;50.844;4.412;2023-12-28T04:56:35;10.53;;;2.50;;
27796;SDS011;15177;50.844;4.412;2023-12-28T04:59:01;10.13;;;2.90;;
27796;SDS011;15177;50.844;4.412;2023-12-28T05:01:27;9.83;;;2.80;;
27796;SDS011;15177;50.844;4.412;2023-12-28T05:03:57;11.77;;;2.40;;
27796;SDS011;15177;50.844;4.412;2023-12-28T05:06:27;10.53;;;2.97;;
27796;SDS011;15177;50.844;4.412;2023-12-28T05:08:53;12.10;;;3.03;;
27796;SDS011;15177;50.844;4.412;2023-12-28T05:11:21;11.50;;;2.70;;
27796;SDS011;15177;50.844;4.412;2023-12-28T05:13:47;17.80;;;2.60;;
27796;SDS011;15177;50.844;4.412;2023-12-28T05:16:15;8.57;;;2.50;;
27796;SDS011;15177;50.844;4.412;2023-12-28T05:18:41;7.13;;;2.13;;
27796;SDS011;15177;50.844;4.412;2023-12-28T05:21:06;15.73;;;2.73;;
27796;SDS011;15177;50.844;4.412;2023-12-28T05:23:32;19.17;;;3.53;;
27796;SDS011;15177;50.844;4.412;2023-12-28T05:25:57;14.43;;;3.00;;
27796;SDS011;15177;50.844;4.412;2023-12-28T05:28:23;25.67;;;3.60;;
27796;SDS011;15177;50.844;4.412;2023-12-28T05:30:49;22.77;;;3.37;;
27796;SDS011;15177;50.844;4.412;2023-12-28T05:33:14;17.33;;;2.70;;
27796;SDS011;15177;50.844;4.412;2023-12-28T05:35:42;12.77;;;4.03;;
27796;SDS011;15177;50.844;4.412;2023-12-28T05:38:10;12.53;;;3.57;;
27796;SDS011;15177;50.844;4.412;2023-12-28T05:40:38;11.83;;;2.60;;
27796;SDS011;15177;50.844;4.412;2023-12-28T05:43:04;13.17;;;2.50;;
27796;SDS011;15177;50.844;4.412;2023-12-28T05:45:30;19.47;;;3.50;;
27796;SDS011;15177;50.844;4.412;2023-12-28T05:47:58;15.33;;;2.87;;
27796;SDS011;15177;50.844;4.412;2023-12-28T05:50:24;24.27;;;3.30;;
27796;SDS011;15177;50.844;4.412;2023-12-28T05:52:49;14.37;;;2.70;;
27796;SDS011;15177;50.844;4.412;2023-12-28T05:55:17;23.07;;;4.37;;
27796;SDS011;15177;50.844;4.412;2023-12-28T05:57:45;20.83;;;4.63;;
27796;SDS011;15177;50.844;4.412;2023-12-28T06:00:11;19.30;;;3.40;;
27796;SDS011;15177;50.844;4.412;2023-12-28T06:02:39;11.67;;;3.30;;
27796;SDS011;15177;50.844;4.412;2023-12-28T06:05:10;13.40;;;3.97;;
27796;SDS011;15177;50.844;4.412;2023-12-28T06:07:36;18.50;;;3.17;;
27796;SDS011;15177;50.844;4.412;2023-12-28T06:10:01;16.07;;;2.97;;
27796;SDS011;15177;50.844;4.412;2023-12-28T06:12:29;18.83;;;3.23;;
27796;SDS011;15177;50.844;4.412;2023-12-28T06:14:55;20.40;;;2.77;;
27796;SDS011;15177;50.844;4.412;2023-12-28T06:17:21;21.60;;;3.93;;
27796;SDS011;15177;50.844;4.412;2023-12-28T06:19:46;18.70;;;3.33;;
27796;SDS011;15177;50.844;4.412;2023-12-28T06:22:12;14.27;;;3.03;;
27796;SDS011;15177;50.844;4.412;2023-12-28T06:24:40;19.87;;;3.60;;
27796;SDS011;15177;50.844;4.412;2023-12-28T06:27:06;18.03;;;2.83;;
27796;SDS011;15177;50.844;4.412;2023-12-28T06:29:34;17.97;;;2.97;;
27796;SDS011;15177;50.844;4.412;2023-12-28T06:31:59;14.97;;;3.30;;
27796;SDS011;15177;50.844;4.412;2023-12-28T06:34:25;13.30;;;3.23;;
27796;SDS011;15177;50.844;4.412;2023-12-28T06:36:55;13.43;;;2.90;;
27796;SDS011;15177;50.844;4.412;2023-12-28T06:39:21;14.17;;;2.80;;
27796;SDS011;15177;50.844;4.412;2023-12-28T06:41:47;14.23;;;2.77;;
27796;SDS011;15177;50.844;4.412;2023-12-28T06:44:16;15.07;;;3.37;;
27796;SDS011;15177;50.844;4.412;2023-12-28T06:46:43;18.93;;;3.37;;
27796;SDS011;15177;50.844;4.412;2023-12-28T06:49:11;18.27;;;3.33;;
27796;SDS011;15177;50.844;4.412;2023-12-28T06:51:39;15.60;;;3.17;;
27796;SDS011;15177;50.844;4.412;2023-12-28T06:54:05;11.80;;;2.30;;
27796;SDS011;15177;50.844;4.412;2023-12-28T06:56:30;17.77;;;3.30;;
27796;SDS011;15177;50.844;4.412;2023-12-28T06:58:56;16.60;;;3.47;;
27796;SDS011;15177;50.844;4.412;2023-12-28T07:01:22;16.80;;;2.40;;
27796;SDS011;15177;50.844;4.412;2023-12-28T07:03:49;12.90;;;2.83;;
27796;SDS011;15177;50.844;4.412;2023-12-28T07:06:15;22.43;;;3.73;;
27796;SDS011;15177;50.844;4.412;2023-12-28T07:08:41;12.43;;;2.73;;
27796;SDS011;15177;50.844;4.412;2023-12-28T07:11:09;16.87;;;2.50;;
27796;SDS011;15177;50.844;4.412;2023-12-28T07:13:38;19.07;;;2.97;;
27796;SDS011;15177;50.844;4.412;2023-12-28T07:16:04;24.47;;;4.10;;
27796;SDS011;15177;50.844;4.412;2023-12-28T07:18:32;19.77;;;3.63;;
27796;SDS011;15177;50.844;4.412;2023-12-28T07:21:02;18.23;;;3.17;;
27796;SDS011;15177;50.844;4.412;2023-12-28T07:23:28;17.27;;;2.67;;
27796;SDS011;15177;50.844;4.412;2023-12-28T07:25:54;21.17;;;4.60;;
27796;SDS011;15177;50.844;4.412;2023-12-28T07:28:22;18.13;;;3.60;;
27796;SDS011;15177;50.844;4.412;2023-12-28T07:30:49;24.10;;;3.20;;
27796;SDS011;15177;50.844;4.412;2023-12-28T07:33:17;19.50;;;3.80;;
27796;SDS011;15177;50.844;4.412;2023-12-28T07:35:43;14.43;;;3.43;;
27796;SDS011;15177;50.844;4.412;2023-12-28T07:38:08;20.97;;;3.47;;
27796;SDS011;15177;50.844;4.412;2023-12-28T07:40:34;23.20;;;4.07;;
27796;SDS011;15177;50.844;4.412;2023-12-28T07:43:00;20.30;;;2.83;;
27796;SDS011;15177;50.844;4.412;2023-12-28T07:45:26;14.63;;;3.07;;
27796;SDS011;15177;50.844;4.412;2023-12-28T07:47:51;17.60;;;3.97;;
27796;SDS011;15177;50.844;4.412;2023-12-28T07:50:18;24.63;;;3.60;;
27796;SDS011;15177;50.844;4.412;2023-12-28T07:52:44;17.43;;;2.83;;
27796;SDS011;15177;50.844;4.412;2023-12-28T07:55:14;18.23;;;3.10;;
27796;SDS011;15177;50.844;4.412;2023-12-28T07:57:40;22.27;;;3.77;;
27796;SDS011;15177;50.844;4.412;2023-12-28T08:00:06;18.97;;;3.80;;
27796;SDS011;15177;50.844;4.412;2023-12-28T08:02:32;19.87;;;3.47;;
27796;SDS011;15177;50.844;4.412;2023-12-28T08:05:01;19.27;;;4.40;;
27796;SDS011;15177;50.844;4.412;2023-12-28T08:07:27;23.57;;;3.27;;
27796;SDS011;15177;50.844;4.412;2023-12-28T08:09:53;29.00;;;4.60;;
27796;SDS011;15177;50.844;4.412;2023-12-28T08:12:18;18.77;;;3.77;;
27796;SDS011;15177;50.844;4.412;2023-12-28T08:14:46;12.57;;;3.20;;
27796;SDS011;15177;50.844;4.412;2023-12-28T08:17:11;21.90;;;4.40;;
27796;SDS011;15177;50.844;4.412;2023-12-28T08:19:37;19.53;;;3.13;;
27796;SDS011;15177;50.844;4.412;2023-12-28T08:22:05;15.00;;;2.60;;
27796;SDS011;15177;50.844;4.412;2023-12-28T08:24:33;19.67;;;3.00;;
27796;SDS011;15177;50.844;4.412;2023-12-28T08:27:01;16.57;;;3.20;;
27796;SDS011;15177;50.844;4.412;2023-12-28T08:29:29;26.33;;;3.30;;
27796;SDS011;15177;50.844;4.412;2023-12-28T08:31:54;25.13;;;4.73;;
27796;SDS011;15177;50.844;4.412;2023-12-28T08:34:22;22.23;;;3.03;;
27796;SDS011;15177;50.844;4.412;2023-12-28T08:36:50;14.40;;;3.87;;
27796;SDS011;15177;50.844;4.412;2023-12-28T08:39:17;21.27;;;3.00;;
27796;SDS011;15177;50.844;4.412;2023-12-28T08:41:45;20.53;;;3.07;;
27796;SDS011;15177;50.844;4.412;2023-12-28T08:44:11;14.47;;;3.10;;
27796;SDS011;15177;50.844;4.412;2023-12-28T08:46:41;17.83;;;2.90;;
27796;SDS011;15177;50.844;4.412;2023-12-28T08:49:07;12.80;;;3.10;;
27796;SDS011;15177;50.844;4.412;2023-12-28T08:51:32;24.47;;;3.17;;
27796;SDS011;15177;50.844;4.412;2023-12-28T08:53:58;25.07;;;3.57;;
27796;SDS011;15177;50.844;4.412;2023-12-28T08:56:24;17.23;;;4.00;;
27796;SDS011;15177;50.844;4.412;2023-12-28T08:58:50;18.00;;;3.77;;
27796;SDS011;15177;50.844;4.412;2023-12-28T09:01:23;23.43;;;4.43;;
27796;SDS011;15177;50.844;4.412;2023-12-28T09:03:52;16.63;;;3.27;;
27796;SDS011;15177;50.844;4.412;2023-12-28T09:06:19;19.27;;;3.80;;
27796;SDS011;15177;50.844;4.412;2023-12-28T09:08:48;18.07;;;3.17;;
27796;SDS011;15177;50.844;4.412;2023-12-28T09:11:18;21.73;;;3.30;;
27796;SDS011;15177;50.844;4.412;2023-12-28T09:13:49;27.40;;;4.00;;
27796;SDS011;15177;50.844;4.412;2023-12-28T09:16:17;22.57;;;4.37;;
27796;SDS011;15177;50.844;4.412;2023-12-28T09:18:42;23.10;;;3.80;;
27796;SDS011;15177;50.844;4.412;2023-12-28T09:21:11;26.10;;;3.70;;
27796;SDS011;15177;50.844;4.412;2023-12-28T09:23:37;16.03;;;3.33;;
27796;SDS011;15177;50.844;4.412;2023-12-28T09:26:03;20.50;;;2.80;;
27796;SDS011;15177;50.844;4.412;2023-12-28T09:28:30;19.03;;;3.30;;
27796;SDS011;15177;50.844;4.412;2023-12-28T09:31:02;16.83;;;3.80;;
27796;SDS011;15177;50.844;4.412;2023-12-28T09:33:28;23.17;;;3.43;;
27796;SDS011;15177;50.844;4.412;2023-12-28T09:35:54;26.37;;;3.23;;
27796;SDS011;15177;50.844;4.412;2023-12-28T09:38:19;18.23;;;2.93;;
27796;SDS011;15177;50.844;4.412;2023-12-28T09:40:45;22.47;;;3.10;;
27796;SDS011;15177;50.844;4.412;2023-12-28T09:43:24;15.50;;;2.70;;
27796;SDS011;15177;50.844;4.412;2023-12-28T09:45:51;28.43;;;3.77;;
27796;SDS011;15177;50.844;4.412;2023-12-28T09:48:17;27.10;;;3.77;;
27796;SDS011;15177;50.844;4.412;2023-12-28T09:50:53;21.90;;;3.60;;
27796;SDS011;15177;50.844;4.412;2023-12-28T09:53:23;34.10;;;5.63;;
27796;SDS011;15177;50.844;4.412;2023-12-28T09:55:50;23.13;;;3.47;;
27796;SDS011;15177;50.844;4.412;2023-12-28T09:58:21;27.23;;;3.97;;
27796;SDS011;15177;50.844;4.412;2023-12-28T10:00:50;23.90;;;4.80;;
27796;SDS011;15177;50.844;4.412;2023-12-28T10:03:19;20.87;;;3.50;;
27796;SDS011;15177;50.844;4.412;2023-12-28T10:05:44;18.63;;;4.47;;
27796;SDS011;15177;50.844;4.412;2023-12-28T10:08:11;23.90;;;3.30;;
27796;SDS011;15177;50.844;4.412;2023-12-28T10:10:41;18.93;;;3.40;;
27796;SDS011;15177;50.844;4.412;2023-12-28T10:13:16;23.20;;;4.17;;
27796;SDS011;15177;50.844;4.412;2023-12-28T10:15:48;23.43;;;4.17;;
27796;SDS011;15177;50.844;4.412;2023-12-28T10:18:16;17.60;;;3.27;;
27796;SDS011;15177;50.844;4.412;2023-12-28T10:20:48;11.03;;;3.17;;
27796;SDS011;15177;50.844;4.412;2023-12-28T10:23:15;16.63;;;3.60;;
27796;SDS011;15177;50.844;4.412;2023-12-28T10:25:42;21.37;;;3.50;;
27796;SDS011;15177;50.844;4.412;2023-12-28T10:28:08;21.70;;;3.50;;
27796;SDS011;15177;50.844;4.412;2023-12-28T10:30:37;17.67;;;3.17;;
27796;SDS011;15177;50.844;4.412;2023-12-28T10:33:06;23.87;;;3.70;;
27796;SDS011;15177;50.844;4.412;2023-12-28T10:35:32;21.73;;;3.77;;
27796;SDS011;15177;50.844;4.412;2023-12-28T10:38:01;28.67;;;4.53;;
27796;SDS011;15177;50.844;4.412;2023-12-28T10:40:29;22.60;;;3.37;;
27796;SDS011;15177;50.844;4.412;2023-12-28T10:42:58;22.47;;;3.97;;
27796;SDS011;15177;50.844;4.412;2023-12-28T10:45:30;19.20;;;3.57;;
27796;SDS011;15177;50.844;4.412;2023-12-28T10:48:07;24.50;;;4.17;;
27796;SDS011;15177;50.844;4.412;2023-12-28T10:58:52;26.67;;;3.60;;
27796;SDS011;15177;50.844;4.412;2023-12-28T11:01:35;23.40;;;3.67;;
27796;SDS011;15177;50.844;4.412;2023-12-28T11:06:44;24.03;;;4.13;;
27796;SDS011;15177;50.844;4.412;2023-12-28T11:09:13;24.53;;;4.43;;
27796;SDS011;15177;50.844;4.412;2023-12-28T11:11:41;19.03;;;3.90;;
27796;SDS011;15177;50.844;4.412;2023-12-28T11:14:08;26.33;;;3.50;;
27796;SDS011;15177;50.844;4.412;2023-12-28T11:16:34;15.87;;;3.20;;
27796;SDS011;15177;50.844;4.412;2023-12-28T11:19:06;17.93;;;4.53;;
27796;SDS011;15177;50.844;4.412;2023-12-28T11:21:33;23.37;;;3.33;;
27796;SDS011;15177;50.844;4.412;2023-12-28T11:23:59;28.80;;;4.60;;
27796;SDS011;15177;50.844;4.412;2023-12-28T11:26:25;21.33;;;3.77;;
27796;SDS011;15177;50.844;4.412;2023-12-28T11:29:00;16.87;;;3.53;;
27796;SDS011;15177;50.844;4.412;2023-12-28T11:31:27;27.40;;;4.03;;
27796;SDS011;15177;50.844;4.412;2023-12-28T11:33:54;15.27;;;3.33;;
27796;SDS011;15177;50.844;4.412;2023-12-28T11:36:43;27.03;;;4.00;;
27796;SDS011;15177;50.844;4.412;2023-12-28T11:39:11;18.43;;;3.57;;
27796;SDS011;15177;50.844;4.412;2023-12-28T11:41:43;18.40;;;3.23;;
27796;SDS011;15177;50.844;4.412;2023-12-28T11:44:11;15.57;;;2.90;;
27796;SDS011;15177;50.844;4.412;2023-12-28T11:46:37;18.13;;;3.70;;
27796;SDS011;15177;50.844;4.412;2023-12-28T11:49:06;21.70;;;3.77;;
27796;SDS011;15177;50.844;4.412;2023-12-28T11:51:36;25.33;;;4.23;;
27796;SDS011;15177;50.844;4.412;2023-12-28T11:54:04;20.03;;;3.47;;
27796;SDS011;15177;50.844;4.412;2023-12-28T11:56:35;23.40;;;3.77;;
27796;SDS011;15177;50.844;4.412;2023-12-28T11:59:05;23.10;;;4.00;;
27796;SDS011;15177;50.844;4.412;2023-12-28T12:01:32;23.03;;;3.93;;
27796;SDS011;15177;50.844;4.412;2023-12-28T12:03:58;26.80;;;3.40;;
27796;SDS011;15177;50.844;4.412;2023-12-28T12:06:26;24.37;;;4.53;;
27796;SDS011;15177;50.844;4.412;2023-12-28T12:08:54;29.73;;;4.10;;
27796;SDS011;15177;50.844;4.412;2023-12-28T12:11:25;21.37;;;4.03;;
27796;SDS011;15177;50.844;4.412;2023-12-28T12:13:51;17.00;;;3.97;;
27796;SDS011;15177;50.844;4.412;2023-12-28T12:16:18;28.87;;;4.17;;
27796;SDS011;15177;50.844;4.412;2023-12-28T12:18:43;21.57;;;3.30;;
27796;SDS011;15177;50.844;4.412;2023-12-28T12:21:09;21.87;;;3.50;;
27796;SDS011;15177;50.844;4.412;2023-12-28T12:23:35;20.33;;;3.13;;
27796;SDS011;15177;50.844;4.412;2023-12-28T12:26:04;19.60;;;4.30;;
27796;SDS011;15177;50.844;4.412;2023-12-28T12:28:31;20.37;;;3.77;;
27796;SDS011;15177;50.844;4.412;2023-12-28T12:30:57;18.17;;;3.30;;
27796;SDS011;15177;50.844;4.412;2023-12-28T12:33:26;21.77;;;3.37;;
27796;SDS011;15177;50.844;4.412;2023-12-28T12:35:53;19.57;;;4.20;;
27796;SDS011;15177;50.844;4.412;2023-12-28T12:38:19;18.90;;;4.00;;
27796;SDS011;15177;50.844;4.412;2023-12-28T12:40:50;26.67;;;3.57;;
27796;SDS011;15177;50.844;4.412;2023-12-28T12:43:16;17.97;;;3.50;;
27796;SDS011;15177;50.844;4.412;2023-12-28T12:45:44;24.77;;;3.50;;
27796;SDS011;15177;50.844;4.412;2023-12-28T12:48:11;19.77;;;3.90;;
27796;SDS011;15177;50.844;4.412;2023-12-28T12:50:36;20.07;;;3.30;;
27796;SDS011;15177;50.844;4.412;2023-12-28T12:53:04;20.20;;;3.60;;
27796;SDS011;15177;50.844;4.412;2023-12-28T12:55:30;29.40;;;4.63;;
27796;SDS011;15177;50.844;4.412;2023-12-28T12:57:57;22.77;;;3.87;;
27796;SDS011;15177;50.844;4.412;2023-12-28T13:00:23;17.10;;;3.43;;
27796;SDS011;15177;50.844;4.412;2023-12-28T13:02:51;22.07;;;3.60;;
27796;SDS011;15177;50.844;4.412;2023-12-28T13:05:18;12.57;;;2.90;;
27796;SDS011;15177;50.844;4.412;2023-12-28T13:07:46;20.83;;;3.40;;
27796;SDS011;15177;50.844;4.412;2023-12-28T13:10:17;20.27;;;3.57;;
27796;SDS011;15177;50.844;4.412;2023-12-28T13:12:45;22.53;;;2.97;;
27796;SDS011;15177;50.844;4.412;2023-12-28T13:15:11;26.03;;;3.43;;
27796;SDS011;15177;50.844;4.412;2023-12-28T13:17:36;16.03;;;3.47;;
27796;SDS011;15177;50.844;4.412;2023-12-28T13:20:05;25.40;;;5.40;;
27796;SDS011;15177;50.844;4.412;2023-12-28T13:22:34;14.13;;;2.93;;
27796;SDS011;15177;50.844;4.412;2023-12-28T13:25:00;20.50;;;3.53;;
27796;SDS011;15177;50.844;4.412;2023-12-28T13:27:29;14.97;;;3.13;;
27796;SDS011;15177;50.844;4.412;2023-12-28T13:29:56;16.43;;;3.30;;
27796;SDS011;15177;50.844;4.412;2023-12-28T13:32:24;20.20;;;5.03;;
27796;SDS011;15177;50.844;4.412;2023-12-28T13:34:50;20.57;;;3.37;;
27796;SDS011;15177;50.844;4.412;2023-12-28T13:37:16;18.37;;;3.03;;
27796;SDS011;15177;50.844;4.412;2023-12-28T13:39:44;18.23;;;3.30;;
27796;SDS011;15177;50.844;4.412;2023-12-28T13:42:12;13.97;;;3.17;;
27796;SDS011;15177;50.844;4.412;2023-12-28T13:44:37;24.83;;;3.77;;
27796;SDS011;15177;50.844;4.412;2023-12-28T13:47:03;20.17;;;3.33;;
27796;SDS011;15177;50.844;4.412;2023-12-28T13:49:32;14.10;;;3.30;;
27796;SDS011;15177;50.844;4.412;2023-12-28T13:52:01;24.40;;;4.97;;
27796;SDS011;15177;50.844;4.412;2023-12-28T13:54:29;20.40;;;3.10;;
27796;SDS011;15177;50.844;4.412;2023-12-28T13:56:57;13.70;;;3.47;;
27796;SDS011;15177;50.844;4.412;2023-12-28T13:59:25;26.50;;;3.90;;
27796;SDS011;15177;50.844;4.412;2023-12-28T14:01:53;22.23;;;3.47;;
27796;SDS011;15177;50.844;4.412;2023-12-28T14:04:21;24.13;;;3.57;;
27796;SDS011;15177;50.844;4.412;2023-12-28T14:06:47;16.40;;;3.17;;
27796;SDS011;15177;50.844;4.412;2023-12-28T14:09:13;21.10;;;4.27;;
27796;SDS011;15177;50.844;4.412;2023-12-28T14:11:41;21.10;;;4.80;;
27796;SDS011;15177;50.844;4.412;2023-12-28T14:14:08;24.13;;;4.37;;
27796;SDS011;15177;50.844;4.412;2023-12-28T14:16:34;20.40;;;3.13;;
27796;SDS011;15177;50.844;4.412;2023-12-28T14:19:05;16.20;;;3.50;;
27796;SDS011;15177;50.844;4.412;2023-12-28T14:21:36;21.13;;;3.67;;
27796;SDS011;15177;50.844;4.412;2023-12-28T14:24:05;22.60;;;3.93;;
27796;SDS011;15177;50.844;4.412;2023-12-28T14:26:32;17.07;;;3.93;;
27796;SDS011;15177;50.844;4.412;2023-12-28T14:29:05;19.27;;;4.53;;
27796;SDS011;15177;50.844;4.412;2023-12-28T14:31:33;18.77;;;3.17;;
27796;SDS011;15177;50.844;4.412;2023-12-28T14:33:59;16.33;;;3.00;;
27796;SDS011;15177;50.844;4.412;2023-12-28T14:36:31;12.77;;;3.20;;
27796;SDS011;15177;50.844;4.412;2023-12-28T14:38:59;19.60;;;3.27;;
27796;SDS011;15177;50.844;4.412;2023-12-28T14:41:26;17.80;;;2.90;;
27796;SDS011;15177;50.844;4.412;2023-12-28T14:43:55;18.40;;;2.60;;
27796;SDS011;15177;50.844;4.412;2023-12-28T14:46:24;21.90;;;3.40;;
27796;SDS011;15177;50.844;4.412;2023-12-28T14:48:53;16.57;;;3.10;;
27796;SDS011;15177;50.844;4.412;2023-12-28T14:51:19;27.37;;;4.93;;